createdAt,value
2019-06-15T00:01:03.675Z,1.07
2019-06-15T00:03:32.059Z,1.20
2019-06-15T00:06:00.504Z,1.17
2019-06-15T00:08:28.919Z,1.13
2019-06-15T00:10:57.328Z,1.20
2019-06-15T00:13:25.716Z,1.37
2019-06-15T00:15:54.123Z,1.03
2019-06-15T00:18:22.505Z,1.20
2019-06-15T00:20:50.911Z,1.10
2019-06-15T00:23:19.337Z,1.10
2019-06-15T00:25:47.746Z,1.03
2019-06-15T00:28:16.157Z,1.20
2019-06-15T00:30:44.584Z,1.30
2019-06-15T00:33:12.985Z,1.00
2019-06-15T00:35:41.393Z,1.20
2019-06-15T00:38:09.881Z,1.20
2019-06-15T00:40:38.367Z,1.00
2019-06-15T00:43:06.746Z,1.00
2019-06-15T00:45:35.179Z,1.00
2019-06-15T00:48:03.609Z,0.90
2019-06-15T00:50:32.063Z,0.80
2019-06-15T00:53:00.467Z,0.90
2019-06-15T00:55:28.887Z,0.90
2019-06-15T00:57:57.284Z,0.90
2019-06-15T01:00:25.769Z,1.10
2019-06-15T01:02:54.166Z,1.20
2019-06-15T01:05:22.565Z,1.37
2019-06-15T01:07:50.947Z,1.80
2019-06-15T01:10:19.354Z,1.50
2019-06-15T01:12:47.741Z,2.00
2019-06-15T01:15:16.144Z,2.10
2019-06-15T01:17:44.523Z,2.20
2019-06-15T01:20:13.120Z,2.50
2019-06-15T01:22:41.561Z,2.10
2019-06-15T01:25:09.989Z,2.53
2019-06-15T01:27:40.101Z,3.27
2019-06-15T01:30:08.560Z,2.70
2019-06-15T01:32:36.992Z,3.20
2019-06-15T01:35:05.729Z,3.37
2019-06-15T01:37:34.103Z,3.40
2019-06-15T01:40:03.093Z,2.53
2019-06-15T01:42:31.528Z,2.47
2019-06-15T01:44:59.944Z,2.83
2019-06-15T01:47:28.315Z,2.83
2019-06-15T01:49:56.837Z,3.50
2019-06-15T01:52:25.382Z,3.70
2019-06-15T01:54:53.788Z,3.60
2019-06-15T01:57:22.184Z,4.20
2019-06-15T01:59:50.600Z,4.80
2019-06-15T02:02:19.008Z,4.70
2019-06-15T02:04:47.395Z,5.10
2019-06-15T02:07:15.804Z,4.60
2019-06-15T02:09:44.195Z,5.80
2019-06-15T02:12:12.607Z,4.20
2019-06-15T02:14:41.135Z,4.90
2019-06-15T02:17:09.515Z,6.50
2019-06-15T02:19:37.925Z,5.87
2019-06-15T02:22:06.314Z,4.70
2019-06-15T02:24:34.733Z,4.70
2019-06-15T02:27:03.146Z,4.43
2019-06-15T02:29:31.544Z,4.70
2019-06-15T02:31:59.956Z,5.13
2019-06-15T02:34:28.368Z,5.27
2019-06-15T02:36:56.761Z,4.00
2019-06-15T02:39:25.156Z,4.83
2019-06-15T02:41:53.543Z,5.43
2019-06-15T02:44:21.949Z,4.50
2019-06-15T02:46:50.340Z,4.73
2019-06-15T02:49:18.742Z,5.20
2019-06-15T02:51:47.144Z,3.70
2019-06-15T02:54:15.522Z,4.23
2019-06-15T02:56:43.926Z,3.67
2019-06-15T02:59:12.321Z,3.30
2019-06-15T03:01:40.751Z,3.20
2019-06-15T03:04:09.199Z,2.40
2019-06-15T03:06:37.546Z,2.60
2019-06-15T03:09:06.610Z,3.07
2019-06-15T03:11:34.987Z,3.03
2019-06-15T03:14:04.628Z,2.97
2019-06-15T03:16:33.203Z,3.43
2019-06-15T03:19:01.702Z,2.87
2019-06-15T03:21:30.200Z,3.67
2019-06-15T03:23:58.622Z,3.77
2019-06-15T03:26:27.001Z,3.83
2019-06-15T03:28:55.388Z,3.90
2019-06-15T03:31:23.817Z,4.60
2019-06-15T03:33:52.202Z,4.07
2019-06-15T03:36:20.631Z,4.60
2019-06-15T03:38:49.075Z,3.60
2019-06-15T03:41:17.488Z,3.67
2019-06-15T03:43:45.941Z,3.90
2019-06-15T03:46:14.360Z,3.83
2019-06-15T03:48:42.741Z,3.63
2019-06-15T03:51:11.121Z,4.50
2019-06-15T03:53:39.525Z,4.33
2019-06-15T03:56:20.683Z,4.60
2019-06-15T03:58:37.970Z,4.27
2019-06-15T04:01:15.887Z,4.67
2019-06-15T04:03:44.295Z,4.90
2019-06-15T04:06:12.689Z,5.10
2019-06-15T04:08:41.107Z,5.17
2019-06-15T04:11:09.474Z,4.33
2019-06-15T04:13:37.862Z,5.17
2019-06-15T04:16:06.304Z,6.70
2019-06-15T04:18:34.720Z,5.03
2019-06-15T04:21:03.130Z,5.53
2019-06-15T04:23:31.544Z,5.77
2019-06-15T04:25:59.949Z,5.00
2019-06-15T04:28:28.470Z,4.63
2019-06-15T04:30:56.861Z,7.07
2019-06-15T04:33:25.284Z,6.60
2019-06-15T04:35:53.667Z,5.47
2019-06-15T04:38:22.080Z,6.10
2019-06-15T04:40:50.515Z,5.63
2019-06-15T04:43:18.963Z,7.17
2019-06-15T04:45:47.389Z,7.30
2019-06-15T04:48:15.778Z,7.27
2019-06-15T04:50:44.248Z,7.33
2019-06-15T04:53:14.832Z,7.33
2019-06-15T04:55:42.699Z,7.67
2019-06-15T04:58:14.231Z,7.77
2019-06-15T05:00:42.177Z,9.20
2019-06-15T05:03:10.573Z,6.53
2019-06-15T05:05:38.978Z,7.57
2019-06-15T05:08:07.403Z,7.03
2019-06-15T05:10:35.791Z,7.43
2019-06-15T05:13:04.208Z,9.50
2019-06-15T05:15:32.639Z,7.40
2019-06-15T05:18:01.084Z,8.43
2019-06-15T05:20:48.897Z,8.70
2019-06-15T05:23:20.619Z,8.20
2019-06-15T05:25:49.072Z,7.67
2019-06-15T05:28:17.504Z,7.57
2019-06-15T05:30:45.922Z,6.73
2019-06-15T05:33:14.314Z,5.93
2019-06-15T05:35:42.715Z,8.87
2019-06-15T05:38:11.286Z,7.27
2019-06-15T05:40:39.752Z,8.00
2019-06-15T05:43:08.094Z,6.40
2019-06-15T05:45:36.524Z,6.10
2019-06-15T05:48:04.908Z,6.47
2019-06-15T05:50:34.964Z,6.50
2019-06-15T05:53:03.352Z,6.10
2019-06-15T05:55:31.807Z,5.80
2019-06-15T05:58:00.190Z,5.83
2019-06-15T06:00:28.593Z,5.33
2019-06-15T06:02:57.075Z,5.00
2019-06-15T06:05:25.457Z,6.10
2019-06-15T06:07:53.921Z,5.20
2019-06-15T06:10:22.356Z,5.60
2019-06-15T06:12:50.770Z,5.60
2019-06-15T06:15:19.176Z,4.87
2019-06-15T06:17:47.597Z,5.17
2019-06-15T06:20:15.987Z,4.80
2019-06-15T06:22:44.400Z,5.13
2019-06-15T06:25:13.476Z,4.47
2019-06-15T06:27:41.924Z,5.27
2019-06-15T06:30:10.641Z,4.67
2019-06-15T06:32:39.044Z,4.73
2019-06-15T06:35:08.811Z,5.10
2019-06-15T06:37:37.278Z,5.63
2019-06-15T06:40:08.968Z,5.87
2019-06-15T06:42:37.402Z,7.40
2019-06-15T06:45:09.773Z,5.97
2019-06-15T06:47:38.285Z,5.80
2019-06-15T06:50:26.214Z,6.00
2019-06-15T06:52:54.596Z,5.40
2019-06-15T06:55:23.017Z,6.63
2019-06-15T06:57:54.831Z,6.60
2019-06-15T07:00:21.449Z,7.33
2019-06-15T07:02:49.865Z,7.30
2019-06-15T07:05:18.432Z,8.50
2019-06-15T07:07:46.929Z,8.33
2019-06-15T07:10:16.148Z,9.60
2019-06-15T07:12:44.563Z,9.73
2019-06-15T07:15:12.980Z,9.63
2019-06-15T07:17:41.365Z,9.97
2019-06-15T07:20:09.792Z,10.23
2019-06-15T07:22:38.292Z,10.87
2019-06-15T07:25:06.744Z,12.07
2019-06-15T07:27:35.154Z,12.07
2019-06-15T07:30:10.376Z,13.40
2019-06-15T07:32:38.779Z,15.60
2019-06-15T07:35:07.373Z,14.87
2019-06-15T07:37:35.989Z,14.97
2019-06-15T07:40:05.695Z,15.67
2019-06-15T07:42:34.105Z,15.97
2019-06-15T07:45:02.530Z,14.97
2019-06-15T07:47:30.931Z,16.50
2019-06-15T07:49:59.356Z,16.20
2019-06-15T07:52:27.755Z,14.27
2019-06-15T07:55:10.636Z,12.20
2019-06-15T07:57:46.769Z,10.17
2019-06-15T08:00:21.526Z,9.33
2019-06-15T08:02:50.004Z,8.13
2019-06-15T08:05:18.409Z,8.80
2019-06-15T08:07:51.104Z,8.73
2019-06-15T08:10:19.937Z,8.57
2019-06-15T08:12:48.338Z,8.83
2019-06-15T08:15:16.776Z,9.40
2019-06-15T08:17:49.942Z,7.20
2019-06-15T08:20:34.834Z,7.60
2019-06-15T08:23:08.543Z,7.60
2019-06-15T08:25:37.677Z,8.17
2019-06-15T08:28:06.072Z,8.17
2019-06-15T08:30:51.728Z,6.80
2019-06-15T08:33:20.192Z,7.57
2019-06-15T08:35:48.595Z,7.17
2019-06-15T08:38:34.689Z,6.60
2019-06-15T08:41:50.711Z,7.80
2019-06-15T08:44:18.326Z,7.43
2019-06-15T08:47:02.384Z,7.33
2019-06-15T08:49:38.341Z,9.00
2019-06-15T08:52:18.078Z,8.47
2019-06-15T08:54:46.548Z,9.40
2019-06-15T08:57:40.291Z,9.83
2019-06-15T09:00:21.036Z,8.20
2019-06-15T09:02:49.765Z,6.77
2019-06-15T09:05:24.817Z,6.17
2019-06-15T09:08:01.247Z,6.17
2019-06-15T09:10:29.618Z,5.73
2019-06-15T09:12:58.025Z,5.30
2019-06-15T09:15:47.863Z,5.00
2019-06-15T09:18:16.300Z,3.40
2019-06-15T09:20:44.693Z,3.97
2019-06-15T09:23:13.101Z,3.90
2019-06-15T09:25:41.518Z,3.23
2019-06-15T09:28:09.952Z,3.57
2019-06-15T09:30:43.550Z,3.13
2019-06-15T09:33:11.976Z,3.73
2019-06-15T09:35:40.457Z,3.07
2019-06-15T09:38:08.913Z,3.70
2019-06-15T09:40:37.340Z,3.83
2019-06-15T09:43:05.741Z,3.80
2019-06-15T09:45:34.148Z,3.33
2019-06-15T09:48:07.353Z,3.67
2019-06-15T09:50:38.063Z,4.07
2019-06-15T09:53:06.493Z,4.60
2019-06-15T09:55:38.626Z,4.17
2019-06-15T09:58:07.035Z,4.47
2019-06-15T10:00:36.029Z,5.00
2019-06-15T10:03:12.453Z,4.40
2019-06-15T10:05:42.478Z,4.47
2019-06-15T10:08:10.985Z,4.40
2019-06-15T10:10:45.823Z,3.97
2019-06-15T10:13:14.233Z,3.53
2019-06-15T10:15:42.651Z,4.10
2019-06-15T10:18:11.050Z,3.73
2019-06-15T10:20:39.469Z,3.50
2019-06-15T10:23:07.855Z,3.00
2019-06-15T10:25:40.575Z,3.07
2019-06-15T10:28:09.496Z,3.20
2019-06-15T10:30:37.914Z,2.77
2019-06-15T10:33:18.756Z,2.53
2019-06-15T10:35:47.332Z,3.50
2019-06-15T10:38:15.765Z,3.80
2019-06-15T10:40:44.158Z,3.77
2019-06-15T10:43:13.243Z,4.30
2019-06-15T10:45:41.602Z,3.97
2019-06-15T10:48:09.992Z,3.27
2019-06-15T10:50:38.396Z,3.43
2019-06-15T10:53:06.776Z,3.77
2019-06-15T10:55:35.192Z,3.47
2019-06-15T10:58:03.590Z,2.87
2019-06-15T11:00:31.990Z,2.80
2019-06-15T11:03:00.387Z,3.57
2019-06-15T11:05:31.349Z,2.93
2019-06-15T11:07:59.775Z,3.00
2019-06-15T11:10:40.328Z,3.40
2019-06-15T11:13:08.758Z,3.47
2019-06-15T11:15:37.264Z,3.20
2019-06-15T11:18:05.666Z,3.10
2019-06-15T11:20:34.086Z,2.97
2019-06-15T11:23:02.459Z,2.70
2019-06-15T11:25:31.373Z,2.40
2019-06-15T11:27:59.801Z,2.50
2019-06-15T11:30:37.835Z,2.13
2019-06-15T11:33:11.982Z,2.80
2019-06-15T11:35:39.788Z,2.07
2019-06-15T11:38:08.192Z,2.87
2019-06-15T11:40:36.572Z,2.70
2019-06-15T11:43:04.994Z,2.47
2019-06-15T11:45:33.450Z,1.80
2019-06-15T11:50:59.280Z,2.43
2019-06-15T11:53:27.675Z,2.60
2019-06-15T11:55:56.067Z,2.80
2019-06-15T11:58:24.615Z,2.80
2019-06-15T12:00:53.002Z,2.80
2019-06-15T12:03:21.407Z,1.50
2019-06-15T12:05:49.881Z,1.83
2019-06-15T12:08:18.290Z,1.80
2019-06-15T12:10:46.697Z,2.23
2019-06-15T12:13:15.086Z,2.10
2019-06-15T12:15:43.513Z,2.27
2019-06-15T12:18:11.974Z,2.30
2019-06-15T12:20:40.378Z,2.30
2019-06-15T12:23:08.838Z,2.00
2019-06-15T12:25:37.216Z,2.07
2019-06-15T12:28:05.669Z,2.20
2019-06-15T12:30:47.042Z,1.93
2019-06-15T12:33:10.740Z,1.70
2019-06-15T12:35:39.127Z,1.60
2019-06-15T12:38:07.540Z,1.67
2019-06-15T12:40:35.938Z,1.70
2019-06-15T12:43:04.334Z,1.40
2019-06-15T12:45:32.747Z,1.90
2019-06-15T12:48:01.139Z,1.47
2019-06-15T12:50:29.642Z,1.13
2019-06-15T12:52:58.045Z,1.70
2019-06-15T12:55:26.506Z,1.40
2019-06-15T12:57:54.983Z,1.33
2019-06-15T13:00:29.208Z,1.60
2019-06-15T13:02:57.679Z,1.30
2019-06-15T13:05:26.065Z,1.23
2019-06-15T13:07:54.502Z,1.30
2019-06-15T13:10:22.950Z,1.47
2019-06-15T13:12:51.368Z,1.50
2019-06-15T13:15:21.291Z,1.53
2019-06-15T13:17:49.863Z,1.20
2019-06-15T13:20:18.262Z,1.20
2019-06-15T13:22:46.817Z,1.23
2019-06-15T13:25:15.233Z,1.20
2019-06-15T13:27:43.666Z,1.50
2019-06-15T13:30:21.661Z,1.27
2019-06-15T13:32:50.031Z,1.27
2019-06-15T13:35:18.428Z,1.23
2019-06-15T13:37:46.836Z,1.40
2019-06-15T13:40:15.258Z,1.50
2019-06-15T13:42:43.701Z,1.67
2019-06-15T13:45:12.118Z,1.20
2019-06-15T13:47:40.498Z,1.50
2019-06-15T13:50:08.980Z,1.70
2019-06-15T13:52:37.776Z,1.60
2019-06-15T13:55:06.143Z,1.40
2019-06-15T13:57:34.621Z,1.70
2019-06-15T14:00:04.581Z,2.30
2019-06-15T14:02:33.001Z,2.60
2019-06-15T14:05:01.425Z,2.27
2019-06-15T14:07:29.817Z,2.37
2019-06-15T14:09:58.231Z,2.80
2019-06-15T14:12:26.672Z,3.27
2019-06-15T14:14:55.159Z,3.50
2019-06-15T14:17:23.505Z,3.43
2019-06-15T14:19:51.922Z,3.23
2019-06-15T14:22:20.350Z,3.07
2019-06-15T14:24:48.774Z,2.97
2019-06-15T14:27:17.159Z,3.07
2019-06-15T14:29:45.586Z,2.80
2019-06-15T14:32:13.970Z,2.60
2019-06-15T14:34:42.569Z,1.57
2019-06-15T14:37:10.976Z,1.60
2019-06-15T14:39:39.387Z,1.10
2019-06-15T14:42:07.803Z,0.80
2019-06-15T14:44:36.175Z,0.83
2019-06-15T14:47:04.563Z,1.00
2019-06-15T14:49:33.037Z,1.13
2019-06-15T14:52:01.467Z,1.00
2019-06-15T14:54:29.865Z,0.83
2019-06-15T14:56:58.276Z,1.10
2019-06-15T14:59:26.713Z,1.10
2019-06-15T15:02:07.238Z,1.00
2019-06-15T15:04:26.604Z,1.20
2019-06-15T15:06:58.095Z,1.30
2019-06-15T15:09:26.499Z,1.03
2019-06-15T15:11:55.682Z,1.27
2019-06-15T15:14:26.080Z,1.10
2019-06-15T15:16:54.110Z,1.43
2019-06-15T15:19:22.540Z,1.53
2019-06-15T15:21:50.932Z,1.20
2019-06-15T15:24:19.354Z,1.13
2019-06-15T15:26:47.767Z,1.23
2019-06-15T15:29:16.409Z,1.40
2019-06-15T15:31:46.652Z,1.50
2019-06-15T15:34:17.118Z,1.10
2019-06-15T15:36:46.179Z,1.03
2019-06-15T15:39:16.672Z,0.90
2019-06-15T15:41:47.088Z,1.30
2019-06-15T15:44:16.231Z,1.13
2019-06-15T15:46:46.261Z,1.23
2019-06-15T15:49:16.314Z,0.90
2019-06-15T15:51:47.089Z,1.50
2019-06-15T15:54:14.951Z,1.17
2019-06-15T15:56:43.352Z,1.00
2019-06-15T15:59:11.775Z,1.23
2019-06-15T16:01:40.167Z,1.10
2019-06-15T16:04:08.580Z,3.90
2019-06-15T16:06:36.968Z,1.47
2019-06-15T16:09:06.296Z,1.20
2019-06-15T16:11:37.596Z,1.07
2019-06-15T16:14:07.226Z,1.17
2019-06-15T16:16:36.492Z,1.67
2019-06-15T16:19:06.548Z,1.53
2019-06-15T16:21:36.721Z,1.47
2019-06-15T16:24:07.462Z,1.60
2019-06-15T16:26:37.583Z,1.30
2019-06-15T16:29:06.887Z,1.40
2019-06-15T16:31:37.414Z,1.20
2019-06-15T16:34:05.513Z,1.60
2019-06-15T16:36:36.341Z,1.20
2019-06-15T16:39:06.607Z,1.00
2019-06-15T16:41:36.478Z,1.43
2019-06-15T16:44:07.162Z,1.53
2019-06-15T16:46:36.868Z,1.60
2019-06-15T16:49:05.145Z,1.70
2019-06-15T16:51:35.979Z,2.37
2019-06-15T16:54:06.147Z,1.83
2019-06-15T16:56:36.743Z,1.40
2019-06-15T16:59:06.700Z,1.80
2019-06-15T17:01:35.318Z,2.10
2019-06-15T17:04:06.011Z,3.07
2019-06-15T17:06:33.929Z,3.00
2019-06-15T17:09:02.300Z,1.70
2019-06-15T17:11:30.806Z,1.30
2019-06-15T17:13:59.306Z,1.63
2019-06-15T17:16:27.665Z,1.03
2019-06-15T17:18:56.355Z,1.23
2019-06-15T17:21:26.023Z,1.40
2019-06-15T17:23:57.056Z,0.97
2019-06-15T17:26:26.028Z,0.90
2019-06-15T17:28:56.537Z,1.10
2019-06-15T17:31:26.996Z,0.73
2019-06-15T17:33:56.378Z,0.70
2019-06-15T17:36:27.439Z,0.93
2019-06-15T17:38:56.886Z,1.00
2019-06-15T17:41:26.550Z,0.93
2019-06-15T17:43:56.598Z,1.00
2019-06-15T17:46:28.913Z,0.77
2019-06-15T17:48:56.114Z,0.67
2019-06-15T17:51:26.769Z,0.60
2019-06-15T17:53:56.351Z,0.80
2019-06-15T17:56:26.821Z,0.80
2019-06-15T17:58:54.968Z,0.93
2019-06-15T18:01:23.351Z,0.90
2019-06-15T18:03:55.392Z,0.90
2019-06-15T18:06:21.782Z,1.00
2019-06-15T18:08:50.169Z,0.60
2019-06-15T18:11:18.636Z,0.67
2019-06-15T18:13:47.371Z,0.80
2019-06-15T18:16:15.797Z,0.80
2019-06-15T18:18:44.265Z,0.70
2019-06-15T18:21:12.681Z,1.40
2019-06-15T18:23:41.123Z,1.33
2019-06-15T18:26:09.538Z,1.10
2019-06-15T18:28:37.969Z,2.20
2019-06-15T18:31:06.710Z,3.43
2019-06-15T18:33:36.563Z,2.70
2019-06-15T18:36:06.339Z,4.57
2019-06-15T18:38:37.178Z,3.57
2019-06-15T18:41:07.307Z,9.20
2019-06-15T18:43:36.587Z,12.07
2019-06-15T18:46:07.073Z,12.20
2019-06-15T18:48:36.082Z,7.23
2019-06-15T18:51:07.401Z,5.33
2019-06-15T18:53:38.961Z,3.10
2019-06-15T18:56:06.852Z,3.23
2019-06-15T18:58:37.025Z,7.03
2019-06-15T19:01:06.993Z,8.70
2019-06-15T19:03:37.461Z,9.53
2019-06-15T19:06:06.564Z,6.67
2019-06-15T19:08:37.185Z,3.90
2019-06-15T19:11:07.009Z,2.83
2019-06-15T19:13:36.105Z,1.90
2019-06-15T19:16:06.910Z,1.80
2019-06-15T19:18:36.949Z,1.70
2019-06-15T19:21:06.955Z,1.70
2019-06-15T19:23:36.047Z,1.60
2019-06-15T19:26:06.258Z,2.70
2019-06-15T19:28:37.046Z,3.03
2019-06-15T19:31:06.486Z,3.70
2019-06-15T19:33:37.733Z,3.10
2019-06-15T19:36:06.358Z,1.57
2019-06-15T19:38:36.190Z,1.80
2019-06-15T19:41:06.898Z,2.90
2019-06-15T19:43:36.321Z,2.00
2019-06-15T19:46:06.710Z,2.20
2019-06-15T19:48:36.972Z,1.97
2019-06-15T19:51:05.136Z,2.07
2019-06-15T19:53:36.173Z,1.67
2019-06-15T19:56:03.700Z,1.67
2019-06-15T19:58:32.087Z,2.80
2019-06-15T20:01:00.464Z,3.47
2019-06-15T20:03:28.881Z,2.97
2019-06-15T20:05:57.314Z,2.80
2019-06-15T20:08:26.477Z,2.77
2019-06-15T20:10:56.417Z,3.00
2019-06-15T20:13:25.027Z,2.53
2019-06-15T20:15:53.405Z,2.63
2019-06-15T20:18:21.826Z,2.60
2019-06-15T20:20:50.232Z,2.90
2019-06-15T20:23:18.635Z,2.73
2019-06-15T20:25:47.322Z,3.80
2019-06-15T20:28:16.362Z,4.93
2019-06-15T20:30:50.303Z,4.70
2019-06-15T20:33:18.655Z,3.20
2019-06-15T20:35:47.411Z,2.87
2019-06-15T20:38:16.192Z,2.60
2019-06-15T20:40:47.348Z,4.40
2019-06-15T20:43:17.120Z,6.90
2019-06-15T20:45:47.049Z,10.30
2019-06-15T20:48:15.492Z,9.10
2019-06-15T20:50:43.940Z,8.27
2019-06-15T20:53:12.357Z,4.67
2019-06-15T20:55:40.749Z,2.40
2019-06-15T20:58:09.152Z,5.20
2019-06-15T21:00:37.526Z,7.10
2019-06-15T21:03:06.899Z,6.43
2019-06-15T21:05:41.585Z,6.07
2019-06-15T21:08:06.824Z,5.53
2019-06-15T21:10:37.361Z,6.10
2019-06-15T21:13:05.560Z,5.50
2019-06-15T21:15:37.289Z,4.80
2019-06-15T21:18:06.786Z,4.07
2019-06-15T21:20:36.337Z,3.77
2019-06-15T21:23:06.631Z,4.03
2019-06-15T21:25:35.083Z,3.80
2019-06-15T21:28:06.468Z,3.60
2019-06-15T21:30:36.640Z,3.40
2019-06-15T21:33:03.627Z,3.50
2019-06-15T21:35:46.116Z,3.77
2019-06-15T21:38:02.058Z,3.60
2019-06-15T21:40:30.465Z,3.90
2019-06-15T21:42:58.881Z,5.20
2019-06-15T21:45:27.274Z,4.60
2019-06-15T21:47:56.117Z,4.57
2019-06-15T21:50:26.660Z,5.53
2019-06-15T21:52:56.462Z,4.90
2019-06-15T21:55:26.739Z,4.07
2019-06-15T21:57:56.417Z,4.30
2019-06-15T22:00:44.490Z,5.00
2019-06-15T22:03:12.971Z,5.70
2019-06-15T22:05:41.364Z,5.50
2019-06-15T22:08:09.832Z,5.00
2019-06-15T22:10:38.251Z,5.70
2019-06-15T22:13:07.595Z,5.37
2019-06-15T22:15:35.979Z,4.97
2019-06-15T22:18:06.697Z,5.70
2019-06-15T22:20:35.963Z,6.47
2019-06-15T22:23:06.800Z,6.43
2019-06-15T22:25:36.046Z,6.03
2019-06-15T22:28:06.767Z,6.27
2019-06-15T22:30:36.554Z,6.33
2019-06-15T22:33:06.739Z,6.17
2019-06-15T22:35:36.376Z,6.10
2019-06-15T22:38:07.119Z,6.40
2019-06-15T22:40:36.311Z,5.90
2019-06-15T22:43:07.035Z,6.03
2019-06-15T22:45:35.039Z,5.97
2019-06-15T22:48:03.499Z,6.03
2019-06-15T22:50:31.928Z,5.97
2019-06-15T22:53:03.286Z,5.47
2019-06-15T22:55:30.500Z,5.30
2019-06-15T22:57:58.912Z,5.27
2019-06-15T23:00:27.288Z,4.90
2019-06-15T23:02:56.577Z,4.80
2019-06-15T23:05:26.320Z,5.10
2019-06-15T23:07:55.983Z,5.00
2019-06-15T23:10:24.550Z,5.10
2019-06-15T23:12:52.936Z,4.73
2019-06-15T23:15:21.372Z,5.20
2019-06-15T23:17:49.746Z,5.50
2019-06-15T23:20:18.154Z,5.73
2019-06-15T23:22:46.888Z,5.53
2019-06-15T23:25:16.859Z,6.00
2019-06-15T23:27:46.970Z,5.90
2019-06-15T23:30:16.148Z,4.87
2019-06-15T23:32:46.926Z,5.63
2019-06-15T23:35:16.818Z,4.73
2019-06-15T23:37:46.492Z,4.47
2019-06-15T23:40:28.690Z,4.90
2019-06-15T23:42:57.172Z,4.50
2019-06-15T23:45:26.986Z,4.53
2019-06-15T23:47:57.489Z,4.60
2019-06-15T23:50:26.422Z,4.83
2019-06-15T23:52:55.175Z,3.97
2019-06-15T23:55:23.600Z,3.87
2019-06-15T23:57:52.005Z,3.53
